Colby, KS

1:13 PM CDT on September 21, 2014 (GMT -0500)
Shaltz | Change Station
CLOSE
Current Station
Airport
Location: Colby,
Elevation: 3186 ft
Nearby Weather Stations

Elev 3186 ft 39.43 °N, 101.05 °W | Updated 18 minutes ago

Partly Cloudy
Partly Cloudy
73 °F
Feels Like 73 °F
N
7
Wind Variable Wind from NE
Gusts 17 mph

Today
High -- | Low -- °F
--% Chance of Precip.
Yesterday
High -- | Low -- °F
Precip. -- in
7:30 AM 7:42 PM
Waning Crescent, 6% visible
Pressure 30.36 in
Visibility 10.0 miles
Clouds Clear
Dew Point 41 °F
Humidity 31%
Rainfall 0.00 in
Snow Depth Not available.
UV 8 out of 12
Pollen 6.30 out of 12
Air Quality Not available.
Flu Activity Not available.
METAR KCBK 211755Z AUTO 05006G15KT 10SM CLR 23/05 A3036 RMK AO2

More Conditions Fewer Conditions

Pressure 30.36 in
Visibility 10.0 miles
Clouds Clear
Dew Point 41 °F
Humidity 31%
Rainfall 0.00 in
Snow Depth Not available.
UV 8 out of 12
Pollen 6.30 out of 12
Air Quality Not available.
Flu Activity Not available.
METAR KCBK 211755Z AUTO 05006G15KT 10SM CLR 23/05 A3036 RMK AO2

More Conditions Fewer Conditions

10-Day Weather Forecast

Almanac

Astronomy

Sep. 21, 2014 Rise Set
Actual Time 7:30 AM CDT 7:42 PM CDT
Civil Twilight 7:04 AM CDT 8:09 PM CDT
Nautical Twilight 6:32 AM CDT 8:40 PM CDT
Astronomical Twilight 6:00 AM CDT 9:12 PM CDT
Moon 5:06 AM CDT 6:19 PM CDT
Length of Visible Light 13h 05m
Length of Day
12h 11m
Tomorrow will be 2m 34s shorter.
Waning Crescent, 6% of the Moon is Illuminated
Today
Waning Crescent
Sep 24
New
Oct 1
First Quarter
Oct 8
Full
Oct 15
Last Quarter

Today's Extremes

State Highs State Lows

Community

WunderPhotos

Upload Photos

1,755,213 photos uploaded!

WunderBlogs® & News

Nearby

Snow Depth

Station Depth Elevation
No new snow has been reported.

Earthquake Activity

City Distance Mag. Time & Date
No recent earthquake activity has been reported nearby.
Minimum magnitude displayed is 2.5.

Coastal Water Temperatures

Place Temperature
No Stations Reporting

Nearby Weather Stations